createdAt,value
2023-08-21T00:02:17.757Z,22.32
2023-08-21T00:04:44.834Z,22.54
2023-08-21T00:07:12.662Z,22.59
2023-08-21T00:09:39.834Z,22.46
2023-08-21T00:12:07.553Z,22.25
2023-08-21T00:14:34.656Z,22.00
2023-08-21T00:17:04.431Z,21.76
2023-08-21T00:19:32.120Z,21.71
2023-08-21T00:21:59.374Z,21.49
2023-08-21T00:24:26.454Z,21.46
2023-08-21T00:26:53.514Z,21.44
2023-08-21T00:29:20.608Z,21.68
2023-08-21T00:31:47.902Z,21.82
2023-08-21T00:34:15.347Z,21.77
2023-08-21T00:36:42.434Z,21.67
2023-08-21T00:39:09.444Z,21.71
2023-08-21T00:41:36.582Z,21.70
2023-08-21T00:44:03.997Z,21.70
2023-08-21T00:46:32.824Z,21.67
2023-08-21T00:49:00.031Z,21.64
2023-08-21T00:51:27.819Z,21.36
2023-08-21T00:53:54.885Z,21.21
2023-08-21T00:56:22.526Z,21.30
2023-08-21T00:58:49.722Z,21.09
2023-08-21T01:01:19.653Z,21.11
2023-08-21T01:03:46.711Z,21.03
2023-08-21T01:06:14.236Z,21.06
2023-08-21T01:08:53.969Z,21.08
2023-08-21T01:11:59.314Z,21.14
2023-08-21T01:14:49.223Z,21.11
2023-08-21T01:17:19.284Z,21.06
2023-08-21T01:19:49.933Z,21.06
2023-08-21T01:22:17.260Z,21.15
2023-08-21T01:24:44.322Z,20.98
2023-08-21T01:27:13.534Z,20.93
2023-08-21T01:29:41.019Z,20.87
2023-08-21T01:32:15.749Z,20.89
2023-08-21T01:34:43.457Z,20.85
2023-08-21T01:37:11.384Z,20.95
2023-08-21T01:39:38.562Z,21.09
2023-08-21T01:42:06.735Z,21.07
2023-08-21T01:44:33.830Z,20.95
2023-08-21T01:47:03.711Z,20.92
2023-08-21T01:49:30.865Z,21.00
2023-08-21T01:51:57.960Z,20.96
2023-08-21T01:54:26.314Z,20.88
2023-08-21T01:56:53.334Z,20.82
2023-08-21T01:59:21.344Z,20.78
2023-08-21T02:01:48.487Z,20.80
2023-08-21T02:04:15.530Z,20.89
2023-08-21T02:06:42.702Z,20.88
2023-08-21T02:09:09.770Z,20.84
2023-08-21T02:11:37.201Z,20.86
2023-08-21T02:14:04.290Z,21.04
2023-08-21T02:16:31.446Z,21.25
2023-08-21T02:18:59.137Z,21.37
2023-08-21T02:21:26.660Z,21.33
2023-08-21T02:23:53.662Z,21.25
2023-08-21T02:26:21.426Z,21.26
2023-08-21T02:28:48.534Z,21.37
2023-08-21T02:31:15.615Z,21.39
2023-08-21T02:33:42.711Z,21.31
2023-08-21T02:36:09.853Z,21.20
2023-08-21T02:38:36.899Z,21.08
2023-08-21T02:41:04.842Z,20.99
2023-08-21T02:43:31.885Z,20.88
2023-08-21T02:45:58.920Z,20.84
2023-08-21T02:48:26.054Z,20.80
2023-08-21T02:50:53.278Z,20.75
2023-08-21T02:53:21.821Z,20.72
2023-08-21T02:55:48.893Z,20.71
2023-08-21T02:58:15.930Z,20.71
2023-08-21T03:00:43.033Z,20.66
2023-08-21T03:03:10.122Z,20.64
2023-08-21T03:05:37.406Z,20.60
2023-08-21T03:08:04.789Z,20.57
2023-08-21T03:10:34.956Z,20.55
2023-08-21T03:13:02.152Z,20.48
2023-08-21T03:15:29.263Z,20.39
2023-08-21T03:17:57.436Z,20.39
2023-08-21T03:20:24.620Z,20.35
2023-08-21T03:22:51.775Z,20.41
2023-08-21T03:25:19.066Z,20.41
2023-08-21T03:27:50.392Z,20.38
2023-08-21T03:30:18.047Z,20.35
2023-08-21T03:32:45.173Z,20.36
2023-08-21T03:35:12.820Z,20.41
2023-08-21T03:37:40.119Z,20.44
2023-08-21T03:40:10.409Z,20.46
2023-08-21T03:42:37.688Z,20.44
2023-08-21T03:45:06.243Z,20.43
2023-08-21T03:47:33.527Z,20.50
2023-08-21T03:50:05.806Z,20.48
2023-08-21T03:52:32.924Z,20.50
2023-08-21T03:55:00.093Z,20.51
2023-08-21T03:57:28.784Z,20.55
2023-08-21T03:59:55.763Z,20.59
2023-08-21T04:02:25.294Z,20.64
2023-08-21T04:04:53.634Z,20.71
2023-08-21T04:07:20.724Z,20.80
2023-08-21T04:09:47.996Z,20.93
2023-08-21T04:12:15.079Z,21.04
2023-08-21T04:14:42.201Z,21.10
2023-08-21T04:17:09.370Z,21.16
2023-08-21T04:19:38.425Z,21.22
2023-08-21T04:22:05.507Z,21.32
2023-08-21T04:24:32.795Z,21.36
2023-08-21T04:26:59.863Z,21.43
2023-08-21T04:29:27.029Z,21.52
2023-08-21T04:31:54.461Z,21.59
2023-08-21T04:34:21.475Z,21.68
2023-08-21T04:36:48.609Z,21.80
2023-08-21T04:39:15.971Z,21.91
2023-08-21T04:41:43.267Z,22.05
2023-08-21T04:44:10.977Z,22.16
2023-08-21T04:46:38.308Z,22.20
2023-08-21T04:49:05.489Z,22.39
2023-08-21T04:51:32.804Z,22.52
2023-08-21T04:54:02.514Z,22.62
2023-08-21T04:56:29.545Z,22.70
2023-08-21T04:58:57.143Z,22.81
2023-08-21T05:01:26.679Z,22.95
2023-08-21T05:03:55.489Z,23.06
2023-08-21T05:06:22.665Z,23.15
2023-08-21T05:08:50.698Z,23.25
2023-08-21T05:11:20.758Z,23.34
2023-08-21T05:13:47.845Z,23.47
2023-08-21T05:16:17.837Z,23.60
2023-08-21T05:18:44.961Z,23.72
2023-08-21T05:21:12.129Z,23.76
2023-08-21T05:23:39.245Z,23.92
2023-08-21T05:26:08.787Z,24.17
2023-08-21T05:28:35.820Z,24.18
2023-08-21T05:31:03.493Z,24.28
2023-08-21T05:33:42.410Z,24.48
2023-08-21T05:36:09.480Z,24.65
2023-08-21T05:38:36.589Z,24.78
2023-08-21T05:41:03.615Z,24.95
2023-08-21T05:43:31.363Z,25.05
2023-08-21T05:45:58.472Z,25.19
2023-08-21T05:48:25.627Z,25.42
2023-08-21T05:50:53.961Z,25.54
2023-08-21T05:53:21.078Z,25.61
2023-08-21T05:55:48.115Z,25.83
2023-08-21T05:58:16.521Z,26.00
2023-08-21T06:00:45.650Z,25.96
2023-08-21T06:03:12.964Z,26.17
2023-08-21T06:06:06.487Z,26.28
2023-08-21T06:08:33.580Z,26.48
2023-08-21T06:11:00.594Z,26.54
2023-08-21T06:13:28.152Z,26.64
2023-08-21T06:15:56.599Z,26.92
2023-08-21T06:18:25.178Z,27.00
2023-08-21T06:20:55.061Z,27.18
2023-08-21T06:23:22.746Z,27.15
2023-08-21T06:25:51.030Z,27.34
2023-08-21T06:28:20.329Z,27.52
2023-08-21T06:30:47.609Z,27.59
2023-08-21T06:33:15.663Z,27.66
2023-08-21T06:35:42.790Z,27.72
2023-08-21T06:38:09.855Z,27.69
2023-08-21T06:40:36.948Z,27.72
2023-08-21T06:43:07.041Z,27.89
2023-08-21T06:45:35.633Z,27.97
2023-08-21T06:48:04.717Z,28.16
2023-08-21T06:50:32.279Z,28.47
2023-08-21T06:52:59.582Z,28.49
2023-08-21T06:55:26.667Z,28.66
2023-08-21T06:57:53.753Z,28.50
2023-08-21T07:00:20.855Z,28.54
2023-08-21T07:02:47.958Z,28.64
2023-08-21T07:05:15.310Z,28.68
2023-08-21T07:07:42.453Z,28.79
2023-08-21T07:10:09.992Z,28.97
2023-08-21T07:12:37.124Z,29.09
2023-08-21T07:15:04.936Z,29.22
2023-08-21T07:17:32.194Z,29.14
2023-08-21T07:19:59.223Z,29.31
2023-08-21T07:22:26.291Z,29.46
2023-08-21T07:24:53.417Z,29.46
2023-08-21T07:27:20.500Z,29.74
2023-08-21T07:29:47.610Z,29.68
2023-08-21T07:32:14.731Z,29.76
2023-08-21T07:34:41.794Z,29.94
2023-08-21T07:37:10.247Z,30.06
2023-08-21T07:39:37.418Z,30.25
2023-08-21T07:42:04.814Z,30.43
2023-08-21T07:44:31.832Z,30.67
2023-08-21T07:46:58.979Z,30.72
2023-08-21T07:49:25.968Z,30.61
2023-08-21T07:51:52.999Z,30.60
2023-08-21T07:54:20.038Z,30.66
2023-08-21T07:56:47.123Z,30.94
2023-08-21T07:59:14.303Z,30.94
2023-08-21T08:01:41.348Z,31.02
2023-08-21T08:04:09.007Z,31.31
2023-08-21T08:06:36.344Z,31.21
2023-08-21T08:09:04.899Z,31.36
2023-08-21T08:11:31.917Z,31.48
2023-08-21T08:13:59.079Z,31.46
2023-08-21T08:16:26.219Z,31.40
2023-08-21T08:18:53.280Z,31.40
2023-08-21T08:21:20.352Z,31.48
2023-08-21T08:23:47.400Z,31.61
2023-08-21T08:26:14.451Z,31.78
2023-08-21T08:28:41.472Z,31.72
2023-08-21T08:31:08.495Z,31.79
2023-08-21T08:33:35.739Z,32.17
2023-08-21T08:36:02.810Z,31.98
2023-08-21T08:38:29.826Z,31.92
2023-08-21T08:40:59.027Z,31.93
2023-08-21T08:43:27.161Z,32.22
2023-08-21T08:45:57.785Z,32.24
2023-08-21T08:48:25.731Z,32.67
2023-08-21T08:50:53.381Z,32.40
2023-08-21T08:53:21.439Z,32.27
2023-08-21T08:55:50.000Z,32.29
2023-08-21T08:58:17.044Z,32.41
2023-08-21T09:00:44.321Z,32.70
2023-08-21T09:03:13.535Z,32.75
2023-08-21T09:05:42.086Z,32.70
2023-08-21T09:08:13.763Z,32.92
2023-08-21T09:10:42.241Z,32.95
2023-08-21T09:13:20.032Z,32.78
2023-08-21T09:15:55.664Z,32.72
2023-08-21T09:18:23.202Z,32.96
2023-08-21T09:20:50.436Z,32.92
2023-08-21T09:23:18.931Z,33.14
2023-08-21T09:25:50.697Z,33.12
2023-08-21T09:28:22.492Z,33.28
2023-08-21T09:30:56.188Z,33.43
2023-08-21T09:33:25.119Z,33.32
2023-08-21T09:35:56.116Z,33.58
2023-08-21T09:38:23.882Z,33.68
2023-08-21T09:40:55.859Z,33.91
2023-08-21T09:43:24.725Z,34.51
2023-08-21T10:17:48.242Z,32.82
2023-08-21T10:20:25.710Z,33.36
2023-08-21T10:23:02.721Z,33.31
2023-08-21T10:25:32.226Z,33.29
2023-08-21T10:28:06.279Z,33.53
2023-08-21T10:30:33.506Z,33.68
2023-08-21T10:33:01.449Z,34.08
2023-08-21T10:35:32.776Z,34.45
2023-08-21T10:38:13.990Z,34.84
2023-08-21T10:40:42.192Z,34.95
2023-08-21T10:43:46.912Z,34.46
2023-08-21T10:46:14.390Z,34.99
2023-08-21T10:48:41.474Z,34.86
2023-08-21T10:51:10.214Z,34.83
2023-08-21T10:53:37.723Z,34.79
2023-08-21T10:56:06.210Z,34.73
2023-08-21T10:58:40.123Z,34.86
2023-08-21T11:01:07.415Z,34.89
2023-08-21T11:03:34.693Z,34.97
2023-08-21T11:06:04.259Z,34.09
2023-08-21T11:08:32.553Z,34.10
2023-08-21T11:10:59.742Z,34.17
2023-08-21T11:13:27.193Z,34.40
2023-08-21T11:16:05.936Z,34.93
2023-08-21T11:18:37.746Z,34.21
2023-08-21T11:21:10.210Z,34.35
2023-08-21T11:23:39.373Z,34.08
2023-08-21T11:26:20.100Z,34.61
2023-08-21T11:28:49.221Z,34.75
2023-08-21T11:31:17.694Z,35.12
2023-08-21T11:33:52.008Z,35.45
2023-08-21T11:36:20.319Z,35.56
2023-08-21T11:39:06.245Z,35.56
2023-08-21T11:41:33.114Z,34.44
2023-08-21T11:44:05.324Z,34.93
2023-08-21T11:46:32.521Z,35.10
2023-08-21T11:49:01.558Z,35.60
2023-08-21T11:51:28.883Z,35.69
2023-08-21T11:53:55.964Z,35.52
2023-08-21T11:56:28.872Z,35.79
2023-08-21T11:58:55.963Z,35.94
2023-08-21T12:01:24.081Z,35.69
2023-08-21T12:03:58.048Z,35.84
2023-08-21T12:06:26.813Z,35.77
2023-08-21T12:08:54.313Z,35.33
2023-08-21T12:11:22.128Z,35.88
2023-08-21T12:13:49.123Z,36.03
2023-08-21T12:16:16.299Z,36.15
2023-08-21T12:18:43.429Z,36.15
2023-08-21T12:21:10.528Z,36.02
2023-08-21T12:23:37.529Z,35.79
2023-08-21T12:26:04.643Z,36.06
2023-08-21T12:28:31.911Z,36.33
2023-08-21T12:30:58.957Z,36.04
2023-08-21T12:33:26.052Z,36.28
2023-08-21T12:35:53.152Z,36.12
2023-08-21T12:38:21.808Z,35.95
2023-08-21T12:40:48.988Z,36.24
2023-08-21T12:43:16.026Z,35.90
2023-08-21T12:45:43.210Z,35.81
2023-08-21T12:48:10.396Z,35.48
2023-08-21T12:50:37.612Z,35.32
2023-08-21T12:53:04.758Z,35.16
2023-08-21T12:55:32.280Z,35.36
2023-08-21T12:57:59.385Z,35.48
2023-08-21T13:00:26.546Z,35.58
2023-08-21T13:02:53.672Z,35.55
2023-08-21T13:05:20.872Z,35.38
2023-08-21T13:07:47.985Z,34.48
2023-08-21T13:10:14.990Z,34.92
2023-08-21T13:12:42.633Z,34.20
2023-08-21T13:15:10.138Z,34.06
2023-08-21T13:17:37.611Z,34.28
2023-08-21T13:20:05.164Z,33.67
2023-08-21T13:22:52.842Z,33.17
2023-08-21T13:25:24.462Z,33.07
2023-08-21T13:27:52.341Z,32.99
2023-08-21T13:30:19.488Z,32.91
2023-08-21T13:32:46.551Z,33.05
2023-08-21T13:35:14.048Z,33.30
2023-08-21T13:37:41.705Z,33.35
2023-08-21T13:40:14.034Z,33.39
2023-08-21T13:42:46.550Z,33.39
2023-08-21T13:45:18.714Z,33.16
2023-08-21T13:47:48.801Z,33.33
2023-08-21T13:50:18.166Z,33.21
2023-08-21T13:52:47.935Z,33.17
2023-08-21T13:55:15.903Z,33.28
2023-08-21T13:57:42.958Z,33.22
2023-08-21T14:00:14.861Z,32.90
2023-08-21T14:02:43.132Z,32.93
2023-08-21T14:05:12.222Z,33.04
2023-08-21T14:07:41.120Z,32.88
2023-08-21T14:10:09.495Z,32.87
2023-08-21T14:12:39.710Z,32.72
2023-08-21T14:15:09.348Z,32.84
2023-08-21T14:17:36.496Z,32.72
2023-08-21T14:20:04.794Z,32.61
2023-08-21T14:22:32.063Z,32.42
2023-08-21T14:24:59.104Z,32.40
2023-08-21T14:27:26.254Z,32.39
2023-08-21T14:29:53.322Z,32.27
2023-08-21T14:32:20.461Z,32.24
2023-08-21T14:34:48.405Z,32.29
2023-08-21T14:37:16.839Z,32.24
2023-08-21T14:39:44.644Z,32.14
2023-08-21T14:42:12.548Z,32.41
2023-08-21T14:44:39.581Z,32.38
2023-08-21T14:47:08.366Z,32.59
2023-08-21T14:49:36.070Z,32.94
2023-08-21T14:52:03.586Z,32.81
2023-08-21T14:54:30.621Z,32.78
2023-08-21T14:56:57.651Z,32.75
2023-08-21T14:59:24.839Z,32.76
2023-08-21T15:01:52.029Z,32.62
2023-08-21T15:04:19.125Z,32.40
2023-08-21T15:06:46.691Z,32.55
2023-08-21T15:09:14.387Z,32.57
2023-08-21T15:11:41.526Z,32.68
2023-08-21T15:14:13.008Z,32.21
2023-08-21T15:16:40.981Z,32.38
2023-08-21T15:19:08.114Z,32.08
2023-08-21T15:21:35.435Z,32.06
2023-08-21T15:24:05.323Z,32.03
2023-08-21T15:26:32.775Z,32.18
2023-08-21T15:29:01.363Z,32.49
2023-08-21T15:31:28.643Z,32.46
2023-08-21T15:33:55.834Z,32.31
2023-08-21T15:36:22.994Z,32.03
2023-08-21T15:38:50.150Z,32.02
2023-08-21T15:41:17.238Z,31.81
2023-08-21T15:43:44.296Z,32.03
2023-08-21T15:46:11.394Z,32.09
2023-08-21T15:48:38.478Z,31.76
2023-08-21T15:51:05.617Z,32.05
2023-08-21T15:53:32.681Z,31.69
2023-08-21T15:55:59.817Z,31.36
2023-08-21T15:58:26.960Z,31.67
2023-08-21T16:00:53.998Z,31.63
2023-08-21T16:03:21.069Z,31.63
2023-08-21T16:05:48.310Z,31.53
2023-08-21T16:08:15.451Z,31.46
2023-08-21T16:10:42.567Z,31.35
2023-08-21T16:13:09.613Z,31.20
2023-08-21T16:15:36.785Z,31.32
2023-08-21T16:18:04.072Z,31.51
2023-08-21T16:20:31.158Z,31.07
2023-08-21T16:22:58.231Z,31.22
2023-08-21T16:25:25.789Z,31.37
2023-08-21T16:27:52.945Z,31.31
2023-08-21T16:30:20.054Z,31.08
2023-08-21T16:32:47.357Z,30.83
2023-08-21T16:35:14.367Z,30.73
2023-08-21T16:37:42.762Z,30.51
2023-08-21T16:40:13.094Z,30.26
2023-08-21T16:42:40.903Z,29.97
2023-08-21T16:45:12.205Z,29.87
2023-08-21T16:47:39.370Z,29.71
2023-08-21T16:50:07.633Z,29.57
2023-08-21T16:52:34.689Z,29.54
2023-08-21T16:55:01.736Z,29.38
2023-08-21T16:57:28.766Z,29.32
2023-08-21T16:59:57.478Z,29.22
2023-08-21T17:02:25.101Z,29.11
2023-08-21T17:04:52.758Z,29.23
2023-08-21T17:07:19.788Z,29.38
2023-08-21T17:09:47.844Z,29.62
2023-08-21T17:12:18.326Z,29.08
2023-08-21T17:14:46.517Z,29.26
2023-08-21T17:17:13.689Z,29.09
2023-08-21T17:19:40.753Z,29.37
2023-08-21T17:22:08.759Z,28.93
2023-08-21T17:24:35.877Z,28.97
2023-08-21T17:27:04.101Z,28.82
2023-08-21T17:29:31.169Z,28.45
2023-08-21T17:31:58.587Z,28.19
2023-08-21T17:34:25.798Z,27.95
2023-08-21T17:36:53.727Z,27.75
2023-08-21T17:39:20.873Z,27.67
2023-08-21T17:41:48.065Z,27.57
2023-08-21T17:44:15.512Z,27.59
2023-08-21T17:46:42.716Z,27.50
2023-08-21T17:49:09.748Z,27.41
2023-08-21T17:51:36.866Z,27.33
2023-08-21T17:54:04.418Z,27.25
2023-08-21T17:56:31.770Z,27.24
2023-08-21T17:58:59.012Z,27.24
2023-08-21T18:01:26.330Z,27.17
2023-08-21T18:03:53.638Z,27.12
2023-08-21T18:06:23.152Z,27.01
2023-08-21T18:08:50.838Z,26.89
2023-08-21T18:11:18.982Z,26.85
2023-08-21T18:13:46.304Z,26.70
2023-08-21T18:16:13.435Z,26.59
2023-08-21T18:18:46.648Z,26.52
2023-08-21T18:21:14.605Z,26.52
2023-08-21T18:23:41.782Z,26.55
2023-08-21T18:26:08.905Z,26.51
2023-08-21T18:28:35.937Z,26.35
2023-08-21T18:31:03.782Z,26.16
2023-08-21T18:33:31.082Z,26.08
2023-08-21T18:36:00.293Z,25.95
2023-08-21T18:38:27.662Z,25.87
2023-08-21T18:40:55.656Z,25.85
2023-08-21T18:43:22.800Z,25.87
2023-08-21T18:45:52.533Z,25.79
2023-08-21T18:48:20.406Z,25.65
2023-08-21T18:50:47.641Z,25.56
2023-08-21T18:53:15.711Z,25.43
2023-08-21T18:55:44.724Z,25.32
2023-08-21T18:58:12.828Z,25.21
2023-08-21T19:00:40.099Z,25.19
2023-08-21T19:03:07.661Z,25.15
2023-08-21T19:05:35.223Z,25.17
2023-08-21T19:08:02.358Z,25.14
2023-08-21T19:10:29.776Z,25.15
2023-08-21T19:12:57.335Z,25.15
2023-08-21T19:15:24.467Z,25.18
2023-08-21T19:17:51.536Z,25.18
2023-08-21T19:20:18.735Z,25.09
2023-08-21T19:22:45.725Z,25.03
2023-08-21T19:25:13.763Z,25.02
2023-08-21T19:27:41.302Z,24.96
2023-08-21T19:30:09.258Z,24.90
2023-08-21T19:32:39.163Z,24.85
2023-08-21T19:35:06.636Z,24.72
2023-08-21T19:37:33.779Z,24.66
2023-08-21T19:40:01.135Z,24.65
2023-08-21T19:42:28.445Z,24.71
2023-08-21T19:44:55.750Z,24.70
2023-08-21T19:47:22.815Z,24.67
2023-08-21T19:49:50.420Z,24.74
2023-08-21T19:52:17.846Z,24.74
2023-08-21T19:54:46.887Z,24.72
2023-08-21T19:57:14.027Z,24.77
2023-08-21T19:59:41.584Z,24.82
2023-08-21T20:02:08.743Z,24.64
2023-08-21T20:04:36.042Z,24.63
2023-08-21T20:07:03.378Z,24.51
2023-08-21T20:09:30.395Z,24.28
2023-08-21T20:11:57.472Z,24.27
2023-08-21T20:14:25.195Z,24.19
2023-08-21T20:16:52.453Z,24.26
2023-08-21T20:19:20.293Z,24.30
2023-08-21T20:21:47.354Z,24.34
2023-08-21T20:24:14.481Z,24.38
2023-08-21T20:26:41.522Z,24.40
2023-08-21T20:29:10.635Z,24.37
2023-08-21T20:31:37.711Z,24.33
2023-08-21T20:34:04.869Z,24.27
2023-08-21T20:36:32.126Z,24.32
2023-08-21T20:38:59.219Z,24.24
2023-08-21T20:41:26.340Z,24.15
2023-08-21T20:43:53.671Z,24.15
2023-08-21T20:46:21.032Z,24.19
2023-08-21T20:48:48.099Z,24.20
2023-08-21T20:51:15.431Z,24.19
2023-08-21T20:53:42.486Z,24.16
2023-08-21T20:56:11.114Z,24.16
2023-08-21T20:58:38.793Z,24.16
2023-08-21T21:01:06.021Z,24.14
2023-08-21T21:03:33.136Z,24.13
2023-08-21T21:06:00.287Z,24.18
2023-08-21T21:08:27.322Z,24.17
2023-08-21T21:10:55.037Z,24.11
2023-08-21T21:13:22.026Z,23.98
2023-08-21T21:15:49.318Z,23.86
2023-08-21T21:18:16.418Z,23.67
2023-08-21T21:20:43.571Z,23.49
2023-08-21T21:23:10.628Z,23.45
2023-08-21T21:25:37.872Z,23.54
2023-08-21T21:28:05.314Z,23.58
2023-08-21T21:30:32.390Z,23.64
2023-08-21T21:32:59.470Z,23.65
2023-08-21T21:35:26.503Z,23.81
2023-08-21T21:37:53.496Z,24.07
2023-08-21T21:40:20.638Z,24.15
2023-08-21T21:42:47.761Z,24.13
2023-08-21T21:45:14.821Z,24.01
2023-08-21T21:47:42.209Z,23.89
2023-08-21T21:50:10.829Z,23.84
2023-08-21T21:52:37.970Z,23.80
2023-08-21T21:55:05.749Z,23.77
2023-08-21T21:57:32.796Z,23.96
2023-08-21T21:59:59.805Z,23.97
2023-08-21T22:02:27.047Z,23.99
2023-08-21T22:04:54.113Z,23.96
2023-08-21T22:07:21.379Z,24.04
2023-08-21T22:09:49.032Z,24.15
2023-08-21T22:12:16.127Z,24.22
2023-08-21T22:14:43.145Z,24.36
2023-08-21T22:17:10.176Z,24.45
2023-08-21T22:19:38.473Z,24.49
2023-08-21T22:22:05.490Z,24.51
2023-08-21T22:24:32.591Z,24.49
2023-08-21T22:26:59.695Z,24.42
2023-08-21T22:29:26.763Z,24.37
2023-08-21T22:31:53.816Z,24.19
2023-08-21T22:34:20.886Z,24.05
2023-08-21T22:36:48.424Z,23.83
2023-08-21T22:39:15.725Z,23.60
2023-08-21T22:41:44.746Z,23.42
2023-08-21T22:44:11.791Z,23.35
2023-08-21T22:46:38.822Z,23.33
2023-08-21T22:49:05.801Z,23.12
2023-08-21T22:51:32.910Z,23.15
2023-08-21T22:53:59.895Z,23.27
2023-08-21T22:56:26.964Z,23.32
2023-08-21T22:58:54.097Z,23.30
2023-08-21T23:01:21.394Z,23.16
2023-08-21T23:03:48.596Z,23.13
2023-08-21T23:06:15.714Z,23.07
2023-08-21T23:08:42.742Z,23.09
2023-08-21T23:11:09.892Z,23.07
2023-08-21T23:13:37.029Z,23.10
2023-08-21T23:16:04.399Z,23.05
2023-08-21T23:18:31.488Z,22.94
2023-08-21T23:21:03.074Z,22.81
2023-08-21T23:23:30.372Z,22.64
2023-08-21T23:25:59.708Z,22.59
2023-08-21T23:28:26.772Z,22.47
2023-08-21T23:30:54.566Z,22.47
2023-08-21T23:33:22.691Z,22.39
2023-08-21T23:35:49.896Z,22.30
2023-08-21T23:38:17.128Z,22.28
2023-08-21T23:40:44.264Z,22.16
2023-08-21T23:43:12.925Z,22.05
2023-08-21T23:45:40.522Z,21.93
2023-08-21T23:48:07.769Z,21.84
2023-08-21T23:50:34.978Z,21.72
2023-08-21T23:53:06.481Z,21.55
2023-08-21T23:55:34.979Z,21.45
2023-08-21T23:58:04.716Z,21.49
